N866MA KFRG-

Flight info

Callsign N866MA
Flight time N/A
Altitude VFR
Route
Aircraft PA28/L-DOV/C

Departure

Time 2026-04-30 00:28
Airport Republic Airport (KFRG)

Arrival

Time N/A
Airport -
Time Latitude Longitude Altitude Speed Heading
2026-04-30 00:16 40.72863 -73.41713 78 ft 0 kts 45°
2026-04-30 00:16 40.72867 -73.41706 78 ft 6 kts 54°
2026-04-30 00:16 40.72895 -73.41724 76 ft 9 kts 314°
2026-04-30 00:16 40.72947 -73.41701 79 ft 9 kts 46°
2026-04-30 00:17 40.72987 -73.41697 79 ft 6 kts 307°
2026-04-30 00:17 40.73013 -73.41739 80 ft 6 kts 313°
2026-04-30 00:17 40.73041 -73.41779 79 ft 6 kts 314°
2026-04-30 00:17 40.73077 -73.41828 76 ft 9 kts 313°
2026-04-30 00:18 40.73121 -73.41893 81 ft 9 kts 313°
2026-04-30 00:18 40.73156 -73.41943 82 ft 9 kts 313°
2026-04-30 00:18 40.73206 -73.42014 84 ft 10 kts 313°
2026-04-30 00:18 40.73248 -73.42076 85 ft 8 kts 313°
2026-04-30 00:19 40.73285 -73.42128 87 ft 7 kts 312°
2026-04-30 00:19 40.73309 -73.42163 88 ft 4 kts 312°
2026-04-30 00:19 40.73318 -73.42178 88 ft 7 kts 307°
2026-04-30 00:19 40.73346 -73.42241 91 ft 6 kts 175°
2026-04-30 00:20 40.73330 -73.42236 89 ft 0 kts 111°
2026-04-30 00:21 40.73345 -73.42220 90 ft 9 kts 358°
2026-04-30 00:21 40.73379 -73.42256 91 ft 6 kts
2026-04-30 00:21 40.73395 -73.42244 91 ft 0 kts 41°
2026-04-30 00:22 40.73397 -73.42242 91 ft 3 kts 40°
2026-04-30 00:22 40.73400 -73.42239 91 ft 0 kts 41°
2026-04-30 00:26 40.73411 -73.42225 90 ft 11 kts 44°
2026-04-30 00:26 40.73448 -73.42150 89 ft 8 kts 136°
2026-04-30 00:26 40.73445 -73.42146 89 ft 0 kts 133°
2026-04-30 00:27 40.73368 -73.42034 85 ft 48 kts 133°
2026-04-30 00:27 40.73042 -73.41548 193 ft 85 kts 136°
2026-04-30 00:27 40.72613 -73.40918 459 ft 97 kts 134°
2026-04-30 00:28 40.72300 -73.40492 688 ft 98 kts 136°
2026-04-30 00:28 40.71918 -73.39774 1103 ft 101 kts 104°
2026-04-30 00:28 40.72146 -73.38778 1031 ft 125 kts 65°
2026-04-30 00:28 40.73005 -73.37828 1198 ft 126 kts
2026-04-30 00:29 40.73784 -73.38346 1212 ft 130 kts 320°
2026-04-30 00:29 40.74492 -73.39142 1069 ft 136 kts 317°
2026-04-30 00:29 40.74965 -73.39689 1040 ft 133 kts 317°
2026-04-30 00:29 40.75629 -73.40472 1018 ft 126 kts 316°
2026-04-30 00:30 40.76209 -73.41192 1044 ft 99 kts 312°
2026-04-30 00:30 40.76654 -73.41808 1066 ft 94 kts 310°
2026-04-30 00:30 40.77079 -73.42454 1140 ft 90 kts 305°
2026-04-30 00:30 40.77460 -73.43089 1107 ft 87 kts 305°
2026-04-30 00:31 40.77826 -73.43728 1077 ft 87 kts 303°
2026-04-30 00:31 40.78166 -73.44352 1047 ft 82 kts 304°
2026-04-30 00:31 40.78499 -73.44947 1074 ft 78 kts 302°
2026-04-30 00:31 40.78815 -73.45509 1129 ft 77 kts 303°
2026-04-30 00:32 40.79129 -73.46070 1186 ft 77 kts 302°
2026-04-30 00:32 40.79451 -73.46653 1192 ft 82 kts 301°
2026-04-30 00:32 40.79763 -73.47281 1196 ft 84 kts 298°
2026-04-30 00:32 40.80014 -73.47942 1222 ft 73 kts 274°
2026-04-30 00:33 40.79830 -73.48536 1239 ft 71 kts 218°
2026-04-30 00:33 40.79495 -73.48972 1162 ft 67 kts 215°
2026-04-30 00:33 40.79132 -73.49393 1113 ft 72 kts 215°
2026-04-30 00:33 40.78713 -73.49722 1117 ft 67 kts 173°
2026-04-30 00:34 40.78374 -73.49309 1129 ft 78 kts 136°
2026-04-30 00:34 40.77970 -73.48743 1110 ft 87 kts 135°
2026-04-30 00:34 40.77575 -73.48163 1099 ft 84 kts 134°
2026-04-30 00:34 40.77196 -73.47604 1142 ft 81 kts 133°
2026-04-30 00:35 40.76815 -73.47040 1104 ft 84 kts 134°
2026-04-30 00:35 40.76427 -73.46471 1034 ft 86 kts 133°
2026-04-30 00:35 40.76009 -73.45869 932 ft 91 kts 134°
2026-04-30 00:35 40.75594 -73.45260 860 ft 91 kts 135°
2026-04-30 00:36 40.75162 -73.44630 719 ft 95 kts 135°
2026-04-30 00:36 40.74740 -73.44019 549 ft 84 kts 134°
2026-04-30 00:36 40.74362 -73.43479 440 ft 82 kts 136°
2026-04-30 00:36 40.73984 -73.42925 323 ft 82 kts 134°
2026-04-30 00:37 40.73603 -73.42373 207 ft 82 kts 136°
2026-04-30 00:37 40.73240 -73.41846 106 ft 75 kts 137°
2026-04-30 00:37 40.72936 -73.41412 82 ft 53 kts 133°
2026-04-30 00:37 40.72649 -73.40989 220 ft 71 kts 135°
2026-04-30 00:38 40.72290 -73.40442 444 ft 91 kts 133°
2026-04-30 00:38 40.71849 -73.39769 774 ft 99 kts 130°
2026-04-30 00:38 40.71890 -73.38903 1023 ft 118 kts 54°
2026-04-30 00:38 40.72720 -73.38668 973 ft 131 kts 341°
2026-04-30 00:39 40.73324 -73.39435 1192 ft 121 kts 307°
2026-04-30 00:39 40.73862 -73.40286 1246 ft 119 kts 308°
2026-04-30 00:39 40.74386 -73.41097 1163 ft 116 kts 308°
2026-04-30 00:39 40.74906 -73.41878 1109 ft 113 kts 308°
2026-04-30 00:40 40.75387 -73.42641 1086 ft 105 kts 305°
2026-04-30 00:40 40.75826 -73.43384 1125 ft 101 kts 303°
2026-04-30 00:40 40.76202 -73.44153 1167 ft 93 kts 278°
2026-04-30 00:40 40.75983 -73.44808 1184 ft 80 kts 208°
2026-04-30 00:41 40.75458 -73.45193 1109 ft 87 kts 185°
2026-04-30 00:41 40.75063 -73.44754 982 ft 81 kts 114°
2026-04-30 00:41 40.74814 -73.44095 741 ft 80 kts 138°
2026-04-30 00:41 40.74434 -73.43586 522 ft 79 kts 134°
2026-04-30 00:42 40.74080 -73.43046 359 ft 80 kts 133°
2026-04-30 00:42 40.73710 -73.42517 251 ft 79 kts 135°
2026-04-30 00:42 40.73363 -73.42019 134 ft 70 kts 138°
2026-04-30 00:42 40.73065 -73.41594 72 ft 54 kts 134°
2026-04-30 00:43 40.72827 -73.41253 80 ft 65 kts 132°
2026-04-30 00:43 40.72480 -73.40719 269 ft 87 kts 136°
2026-04-30 00:43 40.72063 -73.40116 560 ft 94 kts 135°
2026-04-30 00:43 40.71886 -73.39362 941 ft 103 kts 74°
2026-04-30 00:44 40.72439 -73.38625 1041 ft 128 kts 36°
2026-04-30 00:44 40.73270 -73.38870 1124 ft 137 kts 306°
2026-04-30 00:44 40.73925 -73.39793 1164 ft 136 kts 313°
2026-04-30 00:44 40.74602 -73.40695 1191 ft 139 kts 311°
2026-04-30 00:45 40.75259 -73.41610 1276 ft 131 kts 312°
2026-04-30 00:45 40.75828 -73.42392 1213 ft 105 kts 309°
2026-04-30 00:45 40.76189 -73.43178 1187 ft 96 kts 290°
2026-04-30 00:45 40.76167 -73.43936 1191 ft 83 kts 238°
2026-04-30 00:46 40.75795 -73.44560 1120 ft 95 kts 219°
2026-04-30 00:46 40.75231 -73.44893 988 ft 84 kts 172°
2026-04-30 00:46 40.74918 -73.44338 815 ft 84 kts 118°
2026-04-30 00:46 40.74547 -73.43758 588 ft 79 kts 141°
2026-04-30 00:47 40.74203 -73.43242 425 ft 74 kts 136°
2026-04-30 00:47 40.73852 -73.42734 286 ft 76 kts 134°
2026-04-30 00:47 40.73501 -73.42226 170 ft 73 kts 135°
2026-04-30 00:47 40.73175 -73.41749 87 ft 63 kts 139°
2026-04-30 00:48 40.72965 -73.41447 73 ft 18 kts 137°
2026-04-30 00:48 40.72790 -73.41199 93 ft 63 kts 133°
2026-04-30 00:48 40.72516 -73.40740 357 ft 70 kts 134°
2026-04-30 00:48 40.72494 -73.40172 638 ft 81 kts 45°
2026-04-30 00:49 40.73064 -73.40211 935 ft 88 kts 316°
2026-04-30 00:49 40.73575 -73.40843 1121 ft 114 kts 313°
2026-04-30 00:49 40.74182 -73.41621 1117 ft 127 kts 314°
2026-04-30 00:49 40.74766 -73.42391 1044 ft 111 kts 316°
2026-04-30 00:50 40.75249 -73.43027 1060 ft 90 kts 310°
2026-04-30 00:50 40.75659 -73.43604 981 ft 81 kts 311°
2026-04-30 00:50 40.76071 -73.44071 937 ft 81 kts 323°
2026-04-30 00:50 40.76522 -73.44548 956 ft 88 kts 314°
2026-04-30 00:51 40.76987 -73.45111 982 ft 92 kts 316°
2026-04-30 00:51 40.77480 -73.45655 1029 ft 91 kts 317°
2026-04-30 00:51 40.77998 -73.46114 1087 ft 86 kts 335°
2026-04-30 00:51 40.78481 -73.45922 1142 ft 73 kts 66°
2026-04-30 00:52 40.78337 -73.45437 1180 ft 70 kts 171°
2026-04-30 00:52 40.78062 -73.45954 1301 ft 85 kts 274°
2026-04-30 00:52 40.78424 -73.46570 1313 ft 93 kts 321°
2026-04-30 00:52 40.78923 -73.47076 1409 ft 92 kts 320°
2026-04-30 00:53 40.79427 -73.47585 1473 ft 93 kts 319°
2026-04-30 00:53 40.79888 -73.48183 1547 ft 91 kts 294°
2026-04-30 00:53 40.79899 -73.48964 1594 ft 85 kts 231°
2026-04-30 00:53 40.79518 -73.49612 1588 ft 90 kts 225°
2026-04-30 00:54 40.79007 -73.50005 1544 ft 87 kts 178°
2026-04-30 00:54 40.78477 -73.49643 1430 ft 89 kts 137°
2026-04-30 00:54 40.78056 -73.49087 1421 ft 82 kts 132°
2026-04-30 00:54 40.77700 -73.48486 1407 ft 85 kts 131°
2026-04-30 00:55 40.77333 -73.47877 1440 ft 87 kts 133°
2026-04-30 00:55 40.76932 -73.47236 1388 ft 92 kts 134°
2026-04-30 00:55 40.76172 -73.46119 1162 ft 67 kts 134°
2026-04-30 00:56 40.75856 -73.45649 1019 ft 75 kts 133°
2026-04-30 00:56 40.75479 -73.45091 909 ft 87 kts 135°
2026-04-30 00:56 40.75080 -73.44526 736 ft 83 kts 137°
2026-04-30 00:56 40.74702 -73.43980 587 ft 75 kts 137°
2026-04-30 00:57 40.74341 -73.43445 459 ft 79 kts 137°
2026-04-30 00:57 40.73969 -73.42908 334 ft 79 kts 133°
2026-04-30 00:57 40.73587 -73.42341 223 ft 83 kts 133°
2026-04-30 00:57 40.73223 -73.41821 95 ft 72 kts 133°
2026-04-30 00:58 40.72943 -73.41419 90 ft 37 kts 131°
2026-04-30 00:58 40.72831 -73.41329 79 ft 12 kts 185°
2026-04-30 00:58 40.72758 -73.41328 79 ft 9 kts 178°
2026-04-30 00:58 40.72741 -73.41346 81 ft 0 kts 256°
2026-04-30 00:59 40.72718 -73.41386 80 ft 15 kts 274°
2026-04-30 00:59 40.72722 -73.41531 80 ft 13 kts 294°
2026-04-30 00:59 40.72788 -73.41546 81 ft 10 kts 352°
2026-04-30 00:59 40.72883 -73.41552 81 ft 15 kts 337°
2026-04-30 01:00 40.72948 -73.41643 80 ft 12 kts 310°
2026-04-30 01:00 40.72949 -73.41697 82 ft 10 kts 220°
2026-04-30 01:00 40.72890 -73.41761 76 ft 6 kts 191°
2026-04-30 01:00 40.72856 -73.41721 73 ft 7 kts 126°
2026-04-30 01:01 40.72834 -73.41715 77 ft 0 kts 89°